createdAt,value
2017-12-01T00:01:50.466Z,2.80
2017-12-01T00:04:18.642Z,2.70
2017-12-01T00:06:46.813Z,2.50
2017-12-01T00:09:16.133Z,2.30
2017-12-01T00:11:44.261Z,2.30
2017-12-01T00:14:12.412Z,2.20
2017-12-01T00:16:40.573Z,2.10
2017-12-01T00:19:08.716Z,2.00
2017-12-01T00:21:37.634Z,2.10
2017-12-01T01:00:37.982Z,3.00
2017-12-01T01:18:07.089Z,2.90
2017-12-01T01:20:36.132Z,2.90
2017-12-01T01:23:04.393Z,2.90
2017-12-01T01:38:28.558Z,2.90
2017-12-01T02:17:33.533Z,2.60
2017-12-01T02:20:01.674Z,2.70
2017-12-01T02:22:29.808Z,2.70
2017-12-01T02:24:57.957Z,2.70
2017-12-01T02:27:26.117Z,2.50
2017-12-01T02:29:55.027Z,2.50
2017-12-01T02:32:23.928Z,2.30
2017-12-01T02:34:52.927Z,2.40
2017-12-01T02:37:21.072Z,2.40
2017-12-01T02:39:49.224Z,2.20
2017-12-01T02:42:17.351Z,2.30
2017-12-01T02:44:45.497Z,2.40
2017-12-01T02:47:13.616Z,2.40
2017-12-01T02:49:41.836Z,2.50
2017-12-01T02:52:09.960Z,2.40
2017-12-01T02:54:38.962Z,2.10
2017-12-01T02:57:07.132Z,2.10
2017-12-01T02:59:36.049Z,2.10
2017-12-01T03:02:04.184Z,2.10
2017-12-01T03:04:32.313Z,2.10
2017-12-01T03:07:01.232Z,1.90
2017-12-01T03:09:29.349Z,1.90
2017-12-01T03:11:57.502Z,2.10
2017-12-01T03:14:25.636Z,1.90
2017-12-01T03:16:53.786Z,2.20
2017-12-01T03:19:22.700Z,2.30
2017-12-01T03:21:50.848Z,2.30
2017-12-01T03:24:18.980Z,2.40
2017-12-01T03:26:48.091Z,2.40
2017-12-01T03:29:16.210Z,2.40
2017-12-01T03:31:44.378Z,2.40
2017-12-01T03:34:12.555Z,2.50
2017-12-01T03:36:41.864Z,2.50
2017-12-01T03:39:09.981Z,2.20
2017-12-01T03:41:38.154Z,2.40
2017-12-01T03:44:06.289Z,2.50
2017-12-01T03:46:34.497Z,2.50
2017-12-01T03:49:02.637Z,2.60
2017-12-01T03:51:31.605Z,2.70
2017-12-01T03:53:59.757Z,2.70
2017-12-01T03:56:28.843Z,2.70
2017-12-01T03:58:57.752Z,2.50
2017-12-01T04:01:25.906Z,2.50
2017-12-01T04:03:54.078Z,2.50
2017-12-01T04:06:22.199Z,2.50
2017-12-01T04:08:50.399Z,2.60
2017-12-01T04:11:18.515Z,2.60
2017-12-01T04:13:46.726Z,2.60
2017-12-01T04:16:14.867Z,2.60
2017-12-01T04:18:43.009Z,2.60
2017-12-01T04:21:11.135Z,2.60
2017-12-01T04:23:39.286Z,2.60
2017-12-01T04:26:07.456Z,2.50
2017-12-01T04:28:35.626Z,2.50
2017-12-01T04:31:03.749Z,2.50
2017-12-01T04:33:31.885Z,2.50
2017-12-01T04:36:00.049Z,2.50
2017-12-01T04:38:28.948Z,2.50
2017-12-01T04:40:57.851Z,2.50
2017-12-01T04:43:25.994Z,2.50
2017-12-01T04:45:54.132Z,2.50
2017-12-01T04:48:22.300Z,2.60
2017-12-01T04:50:50.485Z,2.40
2017-12-01T04:53:18.633Z,2.50
2017-12-01T04:55:47.552Z,2.60
2017-12-01T04:58:16.602Z,2.50
2017-12-01T05:00:44.803Z,2.60
2017-12-01T05:03:12.961Z,2.60
2017-12-01T05:05:41.877Z,2.50
2017-12-01T05:08:10.030Z,2.50
2017-12-01T05:10:39.686Z,2.50
2017-12-01T05:13:07.826Z,2.50
2017-12-01T05:15:36.873Z,2.50
2017-12-01T05:18:05.924Z,2.50
2017-12-01T05:20:34.088Z,2.50
2017-12-01T05:23:02.245Z,2.60
2017-12-01T05:25:30.393Z,2.60
2017-12-01T05:27:59.306Z,2.60
2017-12-01T05:30:27.482Z,2.60
2017-12-01T05:32:56.440Z,2.60
2017-12-01T05:35:24.588Z,2.60
2017-12-01T05:37:52.720Z,2.60
2017-12-01T05:40:20.876Z,2.60
2017-12-01T05:42:49.900Z,2.50
2017-12-01T05:45:18.061Z,2.50
2017-12-01T05:47:47.027Z,2.60
2017-12-01T05:50:15.147Z,2.60
2017-12-01T05:52:43.332Z,2.60
2017-12-01T05:55:11.513Z,2.60
2017-12-01T05:57:39.701Z,2.60
2017-12-01T06:00:07.877Z,2.60
2017-12-01T06:02:36.036Z,2.50
2017-12-01T06:05:04.237Z,2.50
2017-12-01T06:07:32.392Z,2.60
2017-12-01T06:10:00.528Z,2.60
2017-12-01T06:12:28.684Z,2.60
2017-12-01T06:14:56.823Z,2.60
2017-12-01T06:17:24.963Z,2.60
2017-12-01T06:19:53.124Z,2.70
2017-12-01T06:22:21.264Z,2.50
2017-12-01T06:24:49.468Z,2.60
2017-12-01T06:27:17.602Z,2.60
2017-12-01T06:29:45.776Z,2.50
2017-12-01T06:32:13.975Z,2.60
2017-12-01T06:34:42.107Z,2.60
2017-12-01T06:37:10.300Z,2.60
2017-12-01T06:39:38.512Z,2.60
2017-12-01T06:42:06.687Z,2.60
2017-12-01T06:44:36.468Z,2.60
2017-12-01T06:47:04.602Z,2.60
2017-12-01T06:49:32.809Z,2.40
2017-12-01T06:52:00.956Z,2.50
2017-12-01T06:54:29.099Z,1.90
2017-12-01T06:56:58.001Z,1.60
2017-12-01T06:59:26.988Z,1.60
2017-12-01T07:01:55.888Z,2.00
2017-12-01T07:04:24.072Z,1.90
2017-12-01T07:06:52.218Z,2.20
2017-12-01T07:09:20.371Z,2.40
2017-12-01T07:11:49.270Z,2.30
2017-12-01T07:14:18.326Z,2.30
2017-12-01T07:16:47.299Z,2.30
2017-12-01T07:19:15.425Z,2.20
2017-12-01T07:21:44.392Z,2.40
2017-12-01T07:24:12.551Z,2.40
2017-12-01T07:26:52.605Z,2.50
2017-12-01T07:29:20.810Z,2.00
2017-12-01T07:31:49.801Z,1.40
2017-12-01T07:34:17.953Z,1.40
2017-12-01T07:36:46.126Z,1.50
2017-12-01T07:39:14.275Z,1.30
2017-12-01T07:41:42.404Z,1.20
2017-12-01T07:44:23.409Z,1.10
2017-12-01T07:46:51.582Z,1.10
2017-12-01T07:49:19.721Z,1.00
2017-12-01T07:51:49.456Z,0.90
2017-12-01T07:54:17.613Z,0.90
2017-12-01T07:56:46.554Z,0.90
2017-12-01T07:59:15.273Z,0.90
2017-12-01T08:01:43.453Z,1.30
2017-12-01T08:04:12.369Z,1.60
2017-12-01T08:06:40.554Z,1.60
2017-12-01T08:09:08.677Z,2.00
2017-12-01T08:11:37.637Z,2.40
2017-12-01T08:14:05.784Z,2.40
2017-12-01T08:16:45.668Z,2.20
2017-12-01T08:19:13.825Z,1.90
2017-12-01T08:21:53.839Z,1.50
2017-12-01T08:24:33.672Z,1.40
2017-12-01T08:27:01.807Z,1.30
2017-12-01T08:29:29.963Z,1.60
2017-12-01T08:31:58.100Z,2.00
2017-12-01T08:34:26.248Z,2.20
2017-12-01T08:36:55.687Z,2.60
2017-12-01T08:39:23.831Z,2.60
2017-12-01T08:41:52.822Z,2.80
2017-12-01T08:44:20.959Z,2.70
2017-12-01T08:46:49.889Z,2.80
2017-12-01T08:49:18.033Z,2.70
2017-12-01T08:51:46.161Z,2.60
2017-12-01T08:54:15.122Z,2.70
2017-12-01T08:56:44.004Z,2.90
2017-12-01T08:59:12.201Z,2.90
2017-12-01T09:01:40.360Z,3.00
2017-12-01T09:04:08.545Z,3.00
2017-12-01T09:06:36.752Z,2.50
2017-12-01T09:09:05.338Z,2.70
2017-12-01T09:11:33.476Z,2.70
2017-12-01T09:14:01.605Z,2.90
2017-12-01T09:16:29.757Z,2.90
2017-12-01T09:18:57.883Z,3.00
2017-12-01T09:21:26.192Z,3.00
2017-12-01T09:23:54.350Z,2.90
2017-12-01T09:26:22.491Z,2.50
2017-12-01T09:28:50.631Z,2.50
2017-12-01T09:31:19.056Z,2.70
2017-12-01T09:33:47.188Z,2.70
2017-12-01T09:36:15.337Z,2.80
2017-12-01T09:38:43.470Z,3.00
2017-12-01T09:41:11.636Z,3.00
2017-12-01T09:43:40.545Z,3.10
2017-12-01T09:46:08.677Z,3.10
2017-12-01T09:48:37.792Z,3.20
2017-12-01T09:51:05.942Z,3.10
2017-12-01T09:53:34.867Z,2.80
2017-12-01T09:56:03.042Z,2.50
2017-12-01T09:58:31.201Z,2.30
2017-12-01T10:00:59.374Z,2.30
2017-12-01T10:03:27.524Z,2.30
2017-12-01T10:05:55.655Z,2.50
2017-12-01T10:08:24.559Z,2.60
2017-12-01T10:10:52.750Z,2.60
2017-12-01T10:13:20.882Z,2.80
2017-12-01T10:15:49.027Z,3.00
2017-12-01T10:18:17.176Z,2.80
2017-12-01T10:20:46.969Z,3.00
2017-12-01T10:23:15.115Z,3.00
2017-12-01T10:25:43.277Z,3.00
2017-12-01T10:28:11.481Z,3.00
2017-12-01T10:30:40.385Z,3.20
2017-12-01T10:33:09.762Z,3.20
2017-12-01T10:35:38.700Z,3.20
2017-12-01T11:31:40.338Z,2.80
2017-12-01T11:34:14.272Z,2.90
2017-12-01T11:36:48.137Z,3.10
2017-12-01T11:39:21.859Z,3.20
2017-12-01T11:41:55.504Z,3.30
2017-12-01T11:44:29.519Z,3.30
2017-12-01T11:46:57.690Z,3.00
2017-12-01T11:49:25.881Z,3.20
2017-12-01T11:51:54.129Z,3.20
2017-12-01T11:54:22.252Z,3.00
2017-12-01T11:56:50.420Z,3.00
2017-12-01T11:59:18.611Z,3.10
2017-12-01T12:01:47.698Z,3.30
2017-12-01T12:04:16.727Z,3.30
2017-12-01T12:06:44.956Z,3.40
2017-12-01T12:09:14.877Z,2.90
2017-12-01T12:11:43.813Z,3.10
2017-12-01T12:14:12.276Z,3.10
2017-12-01T12:16:40.487Z,3.20
2017-12-01T12:19:08.674Z,3.30
2017-12-01T12:21:36.899Z,3.30
2017-12-01T12:24:05.422Z,3.40
2017-12-01T12:26:33.565Z,3.20
2017-12-01T12:29:01.724Z,2.90
2017-12-01T12:31:29.935Z,2.60
2017-12-01T12:33:59.611Z,2.80
2017-12-01T12:36:30.398Z,2.80
2017-12-01T12:38:59.330Z,3.00
2017-12-01T12:41:28.355Z,3.00
2017-12-01T12:43:56.519Z,3.00
2017-12-01T12:49:25.417Z,2.80
2017-12-01T12:51:53.661Z,2.80
2017-12-01T12:54:22.574Z,2.70
2017-12-01T12:56:50.728Z,2.70
2017-12-01T12:59:18.968Z,2.70
2017-12-01T13:01:47.110Z,2.60
2017-12-01T13:04:15.263Z,2.60
2017-12-01T13:06:43.416Z,2.80
2017-12-01T13:09:11.656Z,2.80
2017-12-01T13:11:39.841Z,3.00
2017-12-01T13:14:08.699Z,3.40
2017-12-01T13:16:36.897Z,3.50
2017-12-01T13:19:05.047Z,3.50
2017-12-01T13:21:52.928Z,3.40
2017-12-01T13:30:23.996Z,3.80
2017-12-01T13:33:01.566Z,3.90
2017-12-01T13:35:31.339Z,4.20
2017-12-01T13:38:11.496Z,4.00
2017-12-01T13:40:52.656Z,4.00
2017-12-01T13:43:31.278Z,3.90
2017-12-01T13:46:16.212Z,4.00
2017-12-01T13:48:48.456Z,4.10
2017-12-01T13:51:19.955Z,3.90
2017-12-01T13:57:12.089Z,3.80
2017-12-01T13:59:43.489Z,3.80
2017-12-01T14:02:14.673Z,3.80
2017-12-01T14:04:43.137Z,3.90
2017-12-01T14:07:32.165Z,3.80
2017-12-01T14:13:02.699Z,3.60
2017-12-01T14:15:33.799Z,3.40
2017-12-01T14:18:08.672Z,3.20
2017-12-01T14:20:38.778Z,3.00
2017-12-01T14:23:07.276Z,3.00
2017-12-01T14:25:35.852Z,3.00
2017-12-01T14:28:04.811Z,3.00
2017-12-01T14:30:35.643Z,3.10
2017-12-01T14:33:06.106Z,3.00
2017-12-01T14:35:35.234Z,2.90
2017-12-01T14:41:17.098Z,2.90
2017-12-01T14:43:47.774Z,2.70
2017-12-01T14:46:23.942Z,2.90
2017-12-01T14:48:52.786Z,3.00
2017-12-01T14:51:23.465Z,2.90
2017-12-01T14:53:51.912Z,2.90
2017-12-01T14:56:21.059Z,3.00
2017-12-01T14:58:51.637Z,3.20
2017-12-01T15:01:20.785Z,3.20
2017-12-01T15:03:52.540Z,3.40
2017-12-01T15:06:23.635Z,3.40
2017-12-01T15:08:53.803Z,3.40
2017-12-01T15:11:26.050Z,3.50
2017-12-01T15:13:57.273Z,3.60
2017-12-01T15:16:34.496Z,3.60
2017-12-01T15:19:26.294Z,3.60
2017-12-01T15:21:55.362Z,3.70
2017-12-01T15:24:25.452Z,3.60
2017-12-01T15:26:53.720Z,3.60
2017-12-01T15:29:22.549Z,3.60
2017-12-01T15:31:50.781Z,3.50
2017-12-01T15:34:19.068Z,3.40
2017-12-01T15:36:48.113Z,3.10
2017-12-01T15:39:16.444Z,3.10
2017-12-01T15:41:44.689Z,2.90
2017-12-01T15:44:13.728Z,2.60
2017-12-01T15:55:43.832Z,2.60
2017-12-01T15:58:13.008Z,2.50
2017-12-01T16:00:41.308Z,2.50
2017-12-01T16:03:10.347Z,2.20
2017-12-01T16:08:40.201Z,2.50
2017-12-01T16:11:08.591Z,2.50
2017-12-01T16:13:36.890Z,2.80
2017-12-01T16:19:16.314Z,3.20
2017-12-01T16:21:45.592Z,3.30
2017-12-01T16:24:13.892Z,3.30
2017-12-01T16:26:44.435Z,3.20
2017-12-01T16:33:08.495Z,3.20
2017-12-01T16:35:37.978Z,3.20
2017-12-01T16:38:06.306Z,3.00
2017-12-01T16:40:35.216Z,3.00
2017-12-01T16:43:04.433Z,2.70
2017-12-01T16:45:33.437Z,2.40
2017-12-01T16:48:02.591Z,2.30
2017-12-01T16:50:30.926Z,2.30
2017-12-01T16:53:00.669Z,2.10
2017-12-01T16:55:28.956Z,2.10
2017-12-01T17:00:52.944Z,1.90
2017-12-01T17:03:21.182Z,2.00
2017-12-01T17:05:49.525Z,2.10
2017-12-01T17:08:22.013Z,2.30
2017-12-01T17:10:52.195Z,2.30
2017-12-01T17:13:22.332Z,2.20
2017-12-01T17:15:55.473Z,2.20
2017-12-01T17:18:23.714Z,2.20
2017-12-01T17:20:54.346Z,2.20
2017-12-01T17:26:09.812Z,2.40
2017-12-01T17:28:40.552Z,2.20
2017-12-01T17:31:16.722Z,2.30
2017-12-01T17:33:45.645Z,2.40
2017-12-01T17:36:20.639Z,2.50
2017-12-01T17:38:50.039Z,2.50
2017-12-01T17:41:20.658Z,2.50
2017-12-01T17:43:53.495Z,2.30
2017-12-01T17:46:23.637Z,2.30
2017-12-01T17:48:56.725Z,2.40
2017-12-01T17:51:28.836Z,2.40
2017-12-01T17:54:02.880Z,2.40
2017-12-01T17:56:31.835Z,2.50
2017-12-01T18:01:37.766Z,2.40
2017-12-01T18:04:13.617Z,2.40
2017-12-01T18:06:43.377Z,2.40
2017-12-01T18:09:13.623Z,2.30
2017-12-01T18:11:42.699Z,2.40
2017-12-01T18:14:12.129Z,2.40
2017-12-01T18:16:42.298Z,2.30
2017-12-01T18:19:12.206Z,2.30
2017-12-01T18:21:44.452Z,2.30
2017-12-01T18:24:15.662Z,2.20
2017-12-01T18:29:57.642Z,2.40
2017-12-01T18:36:09.977Z,2.70
2017-12-01T18:38:38.426Z,2.60
2017-12-01T18:41:08.959Z,2.50
2017-12-01T18:43:38.557Z,2.70
2017-12-01T18:46:08.838Z,2.60
2017-12-01T18:48:38.521Z,2.70
2017-12-01T18:51:09.106Z,2.90
2017-12-01T18:53:39.028Z,3.00
2017-12-01T18:56:10.433Z,3.20
2017-12-01T18:58:42.547Z,3.20
2017-12-01T19:01:14.765Z,3.30
2017-12-01T19:03:46.571Z,3.30
2017-12-01T19:06:15.696Z,3.30
2017-12-01T19:08:47.634Z,3.40
2017-12-01T19:11:19.822Z,3.30
2017-12-01T19:13:51.555Z,3.20
2017-12-01T19:16:21.610Z,3.10
2017-12-01T19:18:50.554Z,3.10
2017-12-01T19:21:19.260Z,3.10
2017-12-01T19:24:10.195Z,3.10
2017-12-01T19:26:40.363Z,3.10
2017-12-01T19:29:09.088Z,3.00
2017-12-01T19:31:40.051Z,2.70
2017-12-01T19:34:16.342Z,2.80
2017-12-01T19:36:45.511Z,2.80
2017-12-01T19:39:14.888Z,2.80
2017-12-01T19:44:36.340Z,2.70
2017-12-01T19:52:31.403Z,2.40
2017-12-01T19:55:07.998Z,2.40
2017-12-01T20:00:23.360Z,2.30
2017-12-01T20:02:52.374Z,2.40
2017-12-01T20:05:21.584Z,2.40
2017-12-01T20:07:50.137Z,2.30
2017-12-01T20:10:20.038Z,2.30
2017-12-01T20:12:52.742Z,2.30
2017-12-01T20:15:27.830Z,2.30
2017-12-01T20:18:21.274Z,2.30
2017-12-01T20:20:52.982Z,2.20
2017-12-01T20:23:21.811Z,2.20
2017-12-01T20:25:51.225Z,2.10
2017-12-01T20:31:06.892Z,2.00
2017-12-01T20:33:37.762Z,2.00
2017-12-01T20:36:07.926Z,1.90
2017-12-01T20:38:40.260Z,2.00
2017-12-01T20:41:18.236Z,1.90
2017-12-01T20:43:48.716Z,1.90
2017-12-01T20:46:18.948Z,2.00
2017-12-01T20:48:47.442Z,1.90
2017-12-01T20:51:17.680Z,1.90
2017-12-01T20:53:49.746Z,1.90
2017-12-01T20:56:19.997Z,1.90
2017-12-01T20:58:49.146Z,1.80
2017-12-01T21:01:20.356Z,1.80
2017-12-01T21:03:49.546Z,1.90
2017-12-01T21:06:19.824Z,1.80
2017-12-01T21:20:13.976Z,1.80
2017-12-01T22:16:26.891Z,1.10
2017-12-01T22:19:06.106Z,1.00
2017-12-01T22:28:14.634Z,1.10
2017-12-01T22:31:00.273Z,1.40
2017-12-01T22:33:40.819Z,1.40
2017-12-01T22:55:29.082Z,1.70
2017-12-01T23:38:08.564Z,2.30
2017-12-01T23:40:37.945Z,2.30
2017-12-01T23:43:11.374Z,2.30
2017-12-01T23:45:40.053Z,2.20
2017-12-01T23:48:09.565Z,2.00
2017-12-01T23:50:38.749Z,1.80
2017-12-01T23:53:08.385Z,1.80
2017-12-01T23:58:16.067Z,1.70
